createdAt,value
2022-10-22T00:00:58.306Z,5.47
2022-10-22T00:02:59.966Z,4.55
2022-10-22T00:05:01.604Z,6.53
2022-10-22T00:07:03.364Z,8.20
2022-10-22T00:09:05.492Z,5.50
2022-10-22T00:11:13.074Z,6.47
2022-10-22T00:13:14.810Z,6.03
2022-10-22T00:15:16.252Z,5.15
2022-10-22T00:17:17.872Z,5.95
2022-10-22T00:19:19.583Z,5.68
2022-10-22T00:21:21.317Z,6.18
2022-10-22T00:23:25.599Z,4.68
2022-10-22T00:25:27.214Z,6.90
2022-10-22T00:27:28.780Z,4.30
2022-10-22T00:29:30.593Z,4.43
2022-10-22T00:31:32.149Z,4.60
2022-10-22T00:33:34.317Z,4.20
2022-10-22T00:35:36.137Z,4.00
2022-10-22T00:37:37.887Z,5.15
2022-10-22T00:39:39.647Z,4.85
2022-10-22T00:41:41.092Z,3.95
2022-10-22T00:44:04.620Z,4.18
2022-10-22T00:46:06.226Z,4.63
2022-10-22T00:48:13.204Z,5.40
2022-10-22T00:50:22.875Z,5.32
2022-10-22T00:52:25.093Z,4.75
2022-10-22T00:54:26.601Z,4.78
2022-10-22T00:56:28.409Z,6.05
2022-10-22T00:58:35.313Z,4.00
2022-10-22T01:00:36.995Z,5.70
2022-10-22T01:02:38.793Z,4.90
2022-10-22T01:04:41.143Z,5.45
2022-10-22T01:06:42.698Z,4.50
2022-10-22T01:08:53.396Z,6.18
2022-10-22T01:11:21.374Z,5.22
2022-10-22T01:13:37.042Z,5.15
2022-10-22T01:15:58.894Z,6.10
2022-10-22T01:18:08.275Z,4.97
2022-10-22T01:20:21.921Z,4.65
2022-10-22T01:22:31.041Z,6.55
2022-10-22T01:24:59.887Z,4.65
2022-10-22T01:27:26.669Z,5.07
2022-10-22T01:29:39.269Z,4.57
2022-10-22T01:31:49.108Z,4.60
2022-10-22T01:33:53.388Z,4.13
2022-10-22T01:35:55.211Z,5.07
2022-10-22T01:38:00.601Z,4.63
2022-10-22T01:40:02.881Z,4.90
2022-10-22T01:42:07.223Z,7.65
2022-10-22T01:44:25.528Z,4.22
2022-10-22T01:46:28.444Z,4.70
2022-10-22T01:48:48.541Z,5.68
2022-10-22T01:51:02.112Z,3.60
2022-10-22T01:53:21.489Z,5.20
2022-10-22T01:55:35.297Z,2.53
2022-10-22T01:58:03.990Z,3.13
2022-10-22T02:00:09.983Z,4.85
2022-10-22T02:02:34.745Z,4.82
2022-10-22T02:04:48.667Z,3.42
2022-10-22T02:06:52.976Z,2.78
2022-10-22T02:08:55.699Z,2.40
2022-10-22T02:10:59.849Z,3.28
2022-10-22T02:13:03.219Z,2.45
2022-10-22T02:15:05.829Z,2.38
2022-10-22T02:17:12.081Z,2.25
2022-10-22T02:19:23.305Z,3.25
2022-10-22T02:21:25.125Z,2.85
2022-10-22T02:23:27.243Z,3.28
2022-10-22T02:25:35.780Z,3.35
2022-10-22T02:27:43.450Z,3.95
2022-10-22T02:30:00.680Z,2.83
2022-10-22T02:32:05.815Z,4.25
2022-10-22T02:34:11.306Z,2.45
2022-10-22T02:36:14.832Z,2.20
2022-10-22T02:38:17.307Z,2.78
2022-10-22T02:40:20.016Z,3.88
2022-10-22T02:42:24.303Z,2.10
2022-10-22T02:44:25.935Z,4.10
2022-10-22T02:46:27.898Z,2.58
2022-10-22T02:48:29.436Z,2.97
2022-10-22T02:50:31.315Z,2.42
2022-10-22T02:52:33.046Z,1.63
2022-10-22T02:54:34.662Z,2.00
2022-10-22T02:56:36.361Z,1.85
2022-10-22T02:58:37.934Z,3.05
2022-10-22T03:00:40.179Z,2.70
2022-10-22T03:02:41.812Z,2.13
2022-10-22T03:04:43.547Z,2.05
2022-10-22T03:06:45.221Z,2.92
2022-10-22T03:08:46.865Z,3.35
2022-10-22T03:10:48.621Z,2.65
2022-10-22T03:12:50.249Z,3.90
2022-10-22T03:14:52.004Z,1.88
2022-10-22T03:16:53.599Z,2.05
2022-10-22T03:18:55.302Z,2.38
2022-10-22T03:21:10.843Z,1.70
2022-10-22T03:23:14.935Z,1.85
2022-10-22T03:25:22.679Z,1.95
2022-10-22T03:27:25.340Z,2.15
2022-10-22T03:29:28.097Z,2.70
2022-10-22T03:31:29.930Z,2.55
2022-10-22T03:33:31.403Z,2.25
2022-10-22T03:35:36.578Z,2.05
2022-10-22T03:37:39.620Z,2.10
2022-10-22T03:39:41.908Z,2.40
2022-10-22T03:41:44.341Z,4.38
2022-10-22T03:43:50.083Z,2.20
2022-10-22T03:45:51.797Z,2.30
2022-10-22T03:47:53.435Z,3.13
2022-10-22T03:49:55.150Z,2.28
2022-10-22T03:51:57.187Z,2.00
2022-10-22T03:53:58.960Z,2.47
2022-10-22T03:56:00.506Z,3.47
2022-10-22T03:58:02.624Z,1.92
2022-10-22T04:00:06.304Z,4.20
2022-10-22T04:02:08.722Z,3.58
2022-10-22T04:04:10.206Z,1.92
2022-10-22T04:06:13.826Z,2.03
2022-10-22T04:08:15.415Z,2.60
2022-10-22T04:10:17.221Z,2.20
2022-10-22T04:12:18.843Z,1.60
2022-10-22T04:14:23.475Z,2.03
2022-10-22T04:16:27.480Z,1.50
2022-10-22T04:18:31.683Z,1.85
2022-10-22T04:20:33.416Z,1.83
2022-10-22T04:22:35.806Z,2.15
2022-10-22T04:24:38.071Z,1.98
2022-10-22T04:26:39.812Z,1.83
2022-10-22T04:28:41.777Z,1.83
2022-10-22T04:30:43.500Z,2.00
2022-10-22T04:32:45.019Z,2.08
2022-10-22T04:34:50.354Z,3.75
2022-10-22T04:36:51.974Z,1.52
2022-10-22T04:39:01.218Z,1.60
2022-10-22T04:41:36.702Z,1.73
2022-10-22T04:43:38.647Z,1.25
2022-10-22T04:45:40.263Z,1.27
2022-10-22T04:47:42.113Z,1.00
2022-10-22T04:49:43.916Z,1.92
2022-10-22T04:51:45.650Z,1.27
2022-10-22T04:53:48.007Z,2.92
2022-10-22T04:55:49.640Z,2.53
2022-10-22T04:57:51.139Z,1.10
2022-10-22T04:59:52.733Z,3.42
2022-10-22T05:01:54.440Z,2.90
2022-10-22T05:03:58.514Z,1.77
2022-10-22T05:06:05.459Z,1.58
2022-10-22T05:08:07.014Z,2.03
2022-10-22T05:10:09.219Z,3.45
2022-10-22T05:12:10.978Z,1.48
2022-10-22T05:14:13.009Z,2.33
2022-10-22T05:16:15.175Z,1.88
2022-10-22T05:18:19.078Z,2.58
2022-10-22T05:20:24.224Z,1.63
2022-10-22T05:22:25.932Z,1.05
2022-10-22T05:24:29.164Z,1.10
2022-10-22T05:26:30.888Z,2.58
2022-10-22T05:28:33.716Z,1.17
2022-10-22T05:30:35.432Z,1.35
2022-10-22T05:32:36.892Z,1.30
2022-10-22T05:34:38.379Z,1.25
2022-10-22T05:36:40.337Z,3.90
2022-10-22T05:38:41.986Z,1.13
2022-10-22T05:40:43.941Z,1.27
2022-10-22T05:42:45.424Z,0.82
2022-10-22T05:44:48.362Z,1.88
2022-10-22T05:46:50.033Z,1.63
2022-10-22T05:48:53.143Z,1.63
2022-10-22T05:50:55.025Z,2.20
2022-10-22T05:52:56.797Z,1.73
2022-10-22T05:54:58.433Z,1.05
2022-10-22T05:57:00.127Z,6.20
2022-10-22T06:01:13.716Z,1.60
2022-10-22T06:03:15.287Z,3.15
2022-10-22T06:05:17.101Z,2.78
2022-10-22T06:07:18.794Z,2.40
2022-10-22T06:09:26.607Z,2.03
2022-10-22T06:11:31.085Z,3.35
2022-10-22T06:13:35.995Z,3.78
2022-10-22T06:15:37.760Z,3.22
2022-10-22T06:17:39.799Z,2.70
2022-10-22T06:19:42.533Z,1.23
2022-10-22T06:21:44.473Z,1.10
2022-10-22T06:23:46.118Z,1.20
2022-10-22T06:25:58.378Z,1.95
2022-10-22T06:28:00.048Z,1.13
2022-10-22T06:30:01.638Z,1.75
2022-10-22T06:32:03.368Z,2.72
2022-10-22T06:34:06.934Z,2.28
2022-10-22T06:36:10.362Z,1.80
2022-10-22T06:38:11.995Z,2.85
2022-10-22T06:40:13.883Z,1.55
2022-10-22T06:42:15.556Z,2.65
2022-10-22T06:44:21.346Z,1.48
2022-10-22T06:46:29.178Z,1.80
2022-10-22T06:48:33.091Z,1.77
2022-10-22T06:50:35.357Z,1.60
2022-10-22T06:52:37.003Z,3.17
2022-10-22T06:54:38.596Z,2.03
2022-10-22T06:56:40.790Z,1.13
2022-10-22T06:58:42.545Z,4.57
2022-10-22T07:00:45.298Z,1.20
2022-10-22T07:02:56.427Z,1.90
2022-10-22T07:05:04.016Z,1.98
2022-10-22T07:07:05.871Z,1.60
2022-10-22T07:09:08.010Z,1.15
2022-10-22T07:11:13.026Z,2.75
2022-10-22T07:13:14.743Z,1.90
2022-10-22T07:15:16.339Z,1.50
2022-10-22T07:17:18.109Z,2.08
2022-10-22T07:19:19.777Z,1.50
2022-10-22T07:21:22.702Z,1.83
2022-10-22T07:23:24.317Z,1.98
2022-10-22T07:25:26.254Z,1.45
2022-10-22T07:27:27.802Z,2.60
2022-10-22T07:29:32.663Z,1.27
2022-10-22T07:31:34.222Z,3.67
2022-10-22T07:33:37.155Z,2.10
2022-10-22T07:35:40.276Z,1.40
2022-10-22T07:37:45.849Z,2.03
2022-10-22T07:39:52.325Z,2.72
2022-10-22T07:41:53.962Z,3.63
2022-10-22T07:43:56.456Z,4.72
2022-10-22T07:46:02.325Z,2.80
2022-10-22T07:48:06.807Z,3.95
2022-10-22T07:50:08.696Z,3.35
2022-10-22T07:52:10.531Z,7.43
2022-10-22T07:54:12.021Z,4.15
2022-10-22T07:56:15.062Z,3.15
2022-10-22T07:58:20.887Z,8.35
2022-10-22T08:00:25.184Z,9.70
2022-10-22T08:02:27.161Z,7.88
2022-10-22T08:04:28.718Z,6.32
2022-10-22T08:06:30.457Z,5.88
2022-10-22T08:08:32.359Z,7.68
2022-10-22T08:10:34.939Z,7.28
2022-10-22T08:12:40.274Z,5.28
2022-10-22T08:14:50.966Z,6.18
2022-10-22T08:16:55.879Z,2.97
2022-10-22T08:18:57.677Z,3.22
2022-10-22T08:20:59.434Z,1.55
2022-10-22T08:23:01.576Z,1.50
2022-10-22T08:25:04.559Z,1.33
2022-10-22T08:27:06.086Z,1.67
2022-10-22T08:29:08.046Z,2.40
2022-10-22T08:31:14.863Z,4.30
2022-10-22T08:33:16.858Z,7.88
2022-10-22T08:35:21.228Z,11.45
2022-10-22T08:37:22.987Z,9.93
2022-10-22T08:39:24.721Z,6.78
2022-10-22T08:41:26.554Z,7.07
2022-10-22T08:43:52.959Z,5.53
2022-10-22T08:46:10.514Z,4.47
2022-10-22T08:48:30.782Z,6.60
2022-10-22T08:50:35.072Z,5.22
2022-10-22T08:52:40.798Z,5.07
2022-10-22T08:54:59.028Z,4.18
2022-10-22T08:57:23.627Z,2.53
2022-10-22T09:00:04.908Z,4.45
2022-10-22T09:02:30.296Z,3.53
2022-10-22T09:05:05.915Z,2.83
2022-10-22T09:07:13.621Z,1.35
2022-10-22T09:09:17.488Z,1.45
2022-10-22T09:11:25.676Z,3.65
2022-10-22T09:13:27.491Z,1.92
2022-10-22T09:15:31.312Z,0.93
2022-10-22T09:17:41.122Z,10.90
2022-10-22T09:20:04.553Z,22.05
2022-10-22T09:22:27.535Z,23.33
2022-10-22T09:24:42.147Z,18.20
2022-10-22T09:26:43.945Z,14.95
2022-10-22T09:28:50.937Z,13.80
2022-10-22T09:30:52.925Z,12.80
2022-10-22T09:33:01.391Z,8.57
2022-10-22T09:35:03.137Z,6.40
2022-10-22T09:37:09.000Z,5.40
2022-10-22T09:39:28.770Z,6.05
2022-10-22T09:41:30.754Z,3.95
2022-10-22T09:43:33.532Z,4.88
2022-10-22T09:45:35.146Z,2.42
2022-10-22T09:48:00.562Z,4.68
2022-10-22T09:50:37.779Z,2.60
2022-10-22T09:52:40.452Z,2.67
2022-10-22T09:54:44.436Z,0.93
2022-10-22T09:56:57.498Z,1.40
2022-10-22T09:58:59.180Z,0.80
2022-10-22T10:01:02.636Z,1.25
2022-10-22T10:03:04.356Z,0.52
2022-10-22T10:05:08.254Z,0.90
2022-10-22T10:07:22.952Z,1.13
2022-10-22T10:09:27.065Z,1.65
2022-10-22T10:11:45.627Z,1.67
2022-10-22T10:13:51.566Z,1.00
2022-10-22T10:16:08.009Z,2.38
2022-10-22T10:18:35.229Z,0.65
2022-10-22T10:20:46.239Z,2.60
2022-10-22T10:23:18.698Z,0.85
2022-10-22T10:25:46.486Z,1.73
2022-10-22T10:27:52.244Z,2.22
2022-10-22T10:30:20.784Z,1.20
2022-10-22T10:32:59.845Z,0.70
2022-10-22T10:35:06.527Z,2.90
2022-10-22T10:37:22.380Z,1.85
2022-10-22T10:39:32.805Z,0.55
2022-10-22T10:41:58.037Z,1.15
2022-10-22T10:44:37.156Z,0.55
2022-10-22T10:47:16.558Z,0.95
2022-10-22T10:49:26.816Z,0.95
2022-10-22T10:51:39.456Z,2.75
2022-10-22T10:53:55.587Z,0.93
2022-10-22T10:56:07.887Z,2.88
2022-10-22T10:58:34.494Z,1.70
2022-10-22T11:00:43.319Z,1.20
2022-10-22T11:03:09.663Z,1.70
2022-10-22T11:05:16.494Z,0.93
2022-10-22T11:07:34.251Z,3.13
2022-10-22T11:09:43.125Z,1.05
2022-10-22T11:11:53.892Z,1.38
2022-10-22T11:13:55.495Z,0.52
2022-10-22T11:16:19.116Z,4.13
2022-10-22T11:18:28.995Z,1.92
2022-10-22T11:20:38.678Z,1.88
2022-10-22T11:23:13.599Z,1.90
2022-10-22T11:25:13.294Z,0.82
2022-10-22T11:27:33.799Z,0.95
2022-10-22T11:29:41.823Z,1.35
2022-10-22T11:31:49.548Z,1.35
2022-10-22T11:34:33.328Z,1.33
2022-10-22T11:36:37.092Z,1.77
2022-10-22T11:38:38.850Z,2.17
2022-10-22T11:40:48.584Z,1.02
2022-10-22T11:43:08.661Z,1.77
2022-10-22T11:45:15.650Z,3.20
2022-10-22T11:47:24.159Z,2.25
2022-10-22T11:49:43.046Z,3.40
2022-10-22T11:51:47.067Z,1.27
2022-10-22T11:53:57.128Z,3.33
2022-10-22T11:56:06.597Z,1.65
2022-10-22T11:58:30.700Z,1.35
2022-10-22T12:00:39.627Z,2.45
2022-10-22T12:02:43.096Z,1.70
2022-10-22T12:04:44.952Z,2.63
2022-10-22T12:07:01.197Z,3.20
2022-10-22T12:09:06.972Z,2.28
2022-10-22T12:11:11.573Z,3.75
2022-10-22T12:13:22.304Z,1.20
2022-10-22T12:15:27.180Z,2.70
2022-10-22T12:17:32.676Z,1.58
2022-10-22T12:19:43.557Z,1.17
2022-10-22T12:21:51.873Z,2.45
2022-10-22T12:23:53.856Z,1.42
2022-10-22T12:25:55.569Z,1.33
2022-10-22T12:27:59.624Z,1.08
2022-10-22T12:30:03.360Z,1.02
2022-10-22T12:32:06.357Z,2.70
2022-10-22T12:34:14.345Z,1.10
2022-10-22T12:36:17.978Z,1.08
2022-10-22T12:38:25.434Z,1.75
2022-10-22T12:40:34.815Z,1.00
2022-10-22T12:42:38.281Z,3.03
2022-10-22T12:44:40.408Z,0.80
2022-10-22T12:46:44.328Z,1.20
2022-10-22T12:48:46.262Z,0.88
2022-10-22T12:50:56.283Z,1.63
2022-10-22T12:52:58.851Z,2.13
2022-10-22T12:55:00.643Z,0.80
2022-10-22T12:57:02.949Z,1.08
2022-10-22T12:59:20.773Z,2.42
2022-10-22T13:01:27.099Z,1.58
2022-10-22T13:03:30.703Z,1.13
2022-10-22T13:05:39.077Z,0.70
2022-10-22T13:07:52.090Z,0.85
2022-10-22T13:09:59.608Z,1.38
2022-10-22T13:12:06.792Z,1.17
2022-10-22T13:14:31.950Z,1.85
2022-10-22T13:16:33.797Z,0.75
2022-10-22T13:18:35.292Z,1.55
2022-10-22T13:20:37.569Z,0.60
2022-10-22T13:22:41.172Z,1.10
2022-10-22T13:24:50.096Z,1.95
2022-10-22T13:26:54.353Z,1.05
2022-10-22T13:28:57.937Z,0.70
2022-10-22T13:31:01.298Z,0.73
2022-10-22T13:33:17.835Z,1.75
2022-10-22T13:35:23.971Z,2.35
2022-10-22T13:37:26.453Z,1.25
2022-10-22T13:39:28.084Z,1.38
2022-10-22T13:41:32.387Z,2.10
2022-10-22T13:43:34.054Z,0.93
2022-10-22T13:45:35.845Z,0.52
2022-10-22T13:47:37.695Z,0.38
2022-10-22T13:49:43.263Z,0.85
2022-10-22T13:51:45.416Z,2.00
2022-10-22T13:53:48.595Z,1.17
2022-10-22T13:55:50.462Z,1.13
2022-10-22T13:58:03.891Z,1.60
2022-10-22T14:00:06.200Z,0.77
2022-10-22T14:02:14.424Z,1.67
2022-10-22T14:04:16.090Z,1.10
2022-10-22T14:06:19.545Z,0.50
2022-10-22T14:08:25.329Z,0.98
2022-10-22T14:10:27.900Z,0.98
2022-10-22T14:12:29.626Z,0.85
2022-10-22T14:14:31.623Z,1.23
2022-10-22T14:16:34.459Z,2.15
2022-10-22T14:18:36.828Z,0.68
2022-10-22T14:20:41.061Z,1.30
2022-10-22T14:22:42.732Z,1.35
2022-10-22T14:24:46.181Z,0.60
2022-10-22T14:26:48.066Z,2.05
2022-10-22T14:29:08.638Z,1.40
2022-10-22T14:31:11.658Z,1.08
2022-10-22T14:33:20.866Z,1.95
2022-10-22T14:35:22.948Z,1.02
2022-10-22T14:37:27.119Z,1.15
2022-10-22T14:39:28.841Z,0.93
2022-10-22T14:41:30.965Z,1.27
2022-10-22T14:43:32.733Z,1.60
2022-10-22T14:45:34.406Z,1.70
2022-10-22T14:47:36.241Z,1.85
2022-10-22T14:49:40.723Z,0.73
2022-10-22T14:51:42.432Z,0.57
2022-10-22T14:53:44.751Z,0.88
2022-10-22T14:55:47.498Z,0.95
2022-10-22T14:57:49.501Z,1.30
2022-10-22T14:59:54.777Z,0.90
2022-10-22T15:01:56.916Z,1.23
2022-10-22T15:04:01.287Z,0.82
2022-10-22T15:06:03.697Z,2.15
2022-10-22T15:08:05.610Z,1.27
2022-10-22T15:10:08.527Z,1.88
2022-10-22T15:12:10.219Z,2.65
2022-10-22T15:14:12.270Z,1.08
2022-10-22T15:16:16.406Z,0.80
2022-10-22T15:18:20.898Z,0.63
2022-10-22T15:20:22.660Z,2.90
2022-10-22T15:22:24.402Z,2.15
2022-10-22T15:24:26.234Z,2.28
2022-10-22T15:26:29.074Z,0.95
2022-10-22T15:28:33.773Z,1.95
2022-10-22T15:30:41.507Z,0.73
2022-10-22T15:32:43.219Z,1.92
2022-10-22T15:34:45.148Z,2.90
2022-10-22T15:36:48.023Z,3.13
2022-10-22T15:38:52.215Z,2.22
2022-10-22T15:41:08.101Z,1.65
2022-10-22T15:43:09.883Z,1.80
2022-10-22T15:45:11.611Z,1.60
2022-10-22T15:47:13.308Z,1.83
2022-10-22T15:49:15.089Z,1.20
2022-10-22T15:51:18.806Z,2.72
2022-10-22T15:53:20.348Z,2.20
2022-10-22T15:55:21.935Z,1.30
2022-10-22T15:57:23.582Z,2.00
2022-10-22T15:59:25.531Z,1.27
2022-10-22T16:01:27.386Z,1.55
2022-10-22T16:03:29.043Z,1.02
2022-10-22T16:05:31.084Z,1.27
2022-10-22T16:07:33.047Z,2.03
2022-10-22T16:09:34.707Z,3.92
2022-10-22T16:11:36.950Z,5.63
2022-10-22T16:13:38.835Z,6.60
2022-10-22T16:15:40.673Z,5.80
2022-10-22T16:17:42.237Z,5.05
2022-10-22T16:19:44.310Z,4.50
2022-10-22T16:21:50.079Z,3.28
2022-10-22T16:23:52.032Z,2.53
2022-10-22T16:25:54.343Z,1.73
2022-10-22T16:27:55.969Z,1.95
2022-10-22T16:29:57.593Z,1.42
2022-10-22T16:32:01.781Z,2.03
2022-10-22T16:34:03.553Z,1.60
2022-10-22T16:36:10.081Z,2.40
2022-10-22T16:38:12.344Z,3.83
2022-10-22T16:40:13.918Z,2.45
2022-10-22T16:42:15.600Z,3.63
2022-10-22T16:44:17.191Z,3.85
2022-10-22T16:46:20.674Z,2.80
2022-10-22T16:48:22.267Z,3.50
2022-10-22T16:50:26.629Z,3.22
2022-10-22T16:52:30.948Z,3.45
2022-10-22T16:54:33.703Z,3.40
2022-10-22T16:56:36.610Z,2.88
2022-10-22T16:58:39.128Z,3.75
2022-10-22T17:00:41.140Z,3.40
2022-10-22T17:02:43.098Z,3.78
2022-10-22T17:04:45.289Z,3.03
2022-10-22T17:06:47.181Z,4.07
2022-10-22T17:08:51.705Z,5.20
2022-10-22T17:10:53.437Z,3.58
2022-10-22T17:12:55.019Z,4.47
2022-10-22T17:14:56.674Z,4.00
2022-10-22T17:17:00.731Z,3.47
2022-10-22T17:19:04.279Z,3.10
2022-10-22T17:21:07.756Z,5.57
2022-10-22T17:23:09.642Z,6.57
2022-10-22T17:25:13.186Z,3.63
2022-10-22T17:27:15.042Z,3.65
2022-10-22T17:29:20.746Z,4.35
2022-10-22T17:31:23.802Z,4.22
2022-10-22T17:33:25.510Z,4.47
2022-10-22T17:37:35.356Z,5.43
2022-10-22T17:39:37.047Z,4.63
2022-10-22T17:41:38.907Z,3.88
2022-10-22T17:43:40.575Z,3.30
2022-10-22T17:45:43.015Z,5.90
2022-10-22T17:47:44.649Z,2.22
2022-10-22T17:49:46.631Z,2.90
2022-10-22T17:51:48.574Z,2.28
2022-10-22T17:53:57.966Z,2.97
2022-10-22T17:56:01.629Z,3.60
2022-10-22T17:58:03.254Z,2.58
2022-10-22T18:00:06.459Z,3.30
2022-10-22T18:02:16.072Z,3.83
2022-10-22T18:04:19.695Z,2.35
2022-10-22T18:06:22.057Z,2.88
2022-10-22T18:08:25.457Z,2.50
2022-10-22T18:10:27.059Z,2.67
2022-10-22T18:12:28.769Z,2.47
2022-10-22T18:14:30.306Z,3.85
2022-10-22T18:16:32.438Z,3.53
2022-10-22T18:18:35.834Z,2.50
2022-10-22T18:20:38.948Z,2.30
2022-10-22T18:22:42.178Z,2.25
2022-10-22T18:24:43.655Z,2.78
2022-10-22T18:26:45.286Z,3.25
2022-10-22T18:28:50.343Z,2.20
2022-10-22T18:30:54.745Z,2.75
2022-10-22T18:32:56.470Z,5.50
2022-10-22T18:34:58.273Z,5.63
2022-10-22T18:37:00.042Z,4.10
2022-10-22T18:39:03.098Z,4.50
2022-10-22T18:41:09.881Z,4.47
2022-10-22T18:43:11.710Z,4.55
2022-10-22T18:45:15.530Z,6.00
2022-10-22T18:47:17.204Z,7.80
2022-10-22T18:49:19.373Z,10.25
2022-10-22T18:51:22.019Z,15.73
2022-10-22T18:53:23.703Z,14.40
2022-10-22T18:55:25.297Z,16.58
2022-10-22T18:57:29.941Z,13.70
2022-10-22T18:59:31.928Z,15.68
2022-10-22T19:01:36.379Z,12.88
2022-10-22T19:03:38.019Z,11.60
2022-10-22T19:05:52.069Z,13.13
2022-10-22T19:07:53.695Z,11.70
2022-10-22T19:09:55.437Z,8.50
2022-10-22T19:11:57.446Z,6.60
2022-10-22T19:13:59.156Z,7.55
2022-10-22T19:16:06.005Z,7.53
2022-10-22T19:18:07.576Z,5.18
2022-10-22T19:20:09.841Z,4.40
2022-10-22T19:22:11.554Z,5.00
2022-10-22T19:24:16.105Z,4.32
2022-10-22T19:26:18.838Z,4.63
2022-10-22T19:28:20.372Z,4.78
2022-10-22T19:30:23.567Z,5.30
2022-10-22T19:32:27.570Z,5.35
2022-10-22T19:34:33.814Z,5.30
2022-10-22T19:36:36.858Z,5.70
2022-10-22T19:38:43.317Z,6.90
2022-10-22T19:40:44.991Z,5.15
2022-10-22T19:42:50.277Z,5.45
2022-10-22T19:44:52.058Z,5.50
2022-10-22T19:46:53.932Z,7.45
2022-10-22T19:48:59.566Z,6.07
2022-10-22T19:51:10.406Z,6.50
2022-10-22T19:53:14.278Z,5.97
2022-10-22T19:55:22.187Z,5.55
2022-10-22T19:57:23.887Z,7.40
2022-10-22T19:59:29.849Z,4.38
2022-10-22T20:01:33.689Z,5.88
2022-10-22T20:03:39.012Z,5.00
2022-10-22T20:05:42.783Z,6.65
2022-10-22T20:07:44.501Z,8.43
2022-10-22T20:09:49.054Z,7.95
2022-10-22T20:11:50.705Z,7.85
2022-10-22T20:13:52.774Z,8.15
2022-10-22T20:15:54.663Z,8.75
2022-10-22T20:17:56.214Z,8.43
2022-10-22T20:20:00.610Z,7.88
2022-10-22T20:22:02.447Z,9.57
2022-10-22T20:24:04.189Z,7.68
2022-10-22T20:26:05.965Z,9.10
2022-10-22T20:28:07.998Z,11.63
2022-10-22T20:30:10.464Z,8.23
2022-10-22T20:32:12.806Z,8.23
2022-10-22T20:34:16.957Z,7.30
2022-10-22T20:36:21.556Z,8.40
2022-10-22T20:38:23.228Z,6.45
2022-10-22T20:40:26.860Z,6.50
2022-10-22T20:42:30.736Z,8.68
2022-10-22T20:44:32.251Z,10.15
2022-10-22T20:46:34.394Z,10.77
2022-10-22T20:48:38.368Z,8.00
2022-10-22T20:50:40.007Z,9.40
2022-10-22T20:52:41.998Z,7.15
2022-10-22T20:54:45.782Z,5.85
2022-10-22T20:56:48.031Z,6.05
2022-10-22T20:58:53.861Z,5.25
2022-10-22T21:00:55.820Z,5.13
2022-10-22T21:02:57.349Z,6.28
2022-10-22T21:04:59.030Z,4.35
2022-10-22T21:07:03.582Z,5.55
2022-10-22T21:09:06.716Z,5.05
2022-10-22T21:11:08.328Z,5.38
2022-10-22T21:13:10.594Z,6.15
2022-10-22T21:15:15.719Z,5.65
2022-10-22T21:17:17.304Z,4.88
2022-10-22T21:19:19.817Z,4.50
2022-10-22T21:21:21.680Z,5.45
2022-10-22T21:23:23.293Z,7.78
2022-10-22T21:25:25.029Z,6.03
2022-10-22T21:27:26.673Z,6.30
2022-10-22T21:29:31.157Z,7.53
2022-10-22T21:31:32.851Z,8.73
2022-10-22T21:33:39.024Z,7.72
2022-10-22T21:35:40.853Z,6.38
2022-10-22T21:37:42.862Z,4.90
2022-10-22T21:39:44.498Z,7.35
2022-10-22T21:41:46.228Z,5.40
2022-10-22T21:43:49.822Z,4.80
2022-10-22T21:46:07.823Z,6.15
2022-10-22T21:48:11.517Z,4.50
2022-10-22T21:50:13.063Z,7.32
2022-10-22T21:52:17.012Z,6.57
2022-10-22T21:54:19.559Z,5.53
2022-10-22T21:56:28.873Z,5.03
2022-10-22T21:58:34.521Z,6.72
2022-10-22T22:00:36.677Z,4.25
2022-10-22T22:02:40.570Z,4.32
2022-10-22T22:04:42.577Z,6.70
2022-10-22T22:06:47.266Z,3.20
2022-10-22T22:08:51.611Z,4.68
2022-10-22T22:11:00.232Z,3.72
2022-10-22T22:13:04.728Z,3.58
2022-10-22T22:15:07.046Z,5.90
2022-10-22T22:17:10.546Z,3.35
2022-10-22T22:19:12.526Z,3.97
2022-10-22T22:21:17.910Z,4.70
2022-10-22T22:23:20.110Z,4.55
2022-10-22T22:25:25.301Z,5.95
2022-10-22T22:27:26.778Z,6.65
2022-10-22T22:29:28.770Z,4.78
2022-10-22T22:31:33.186Z,5.88
2022-10-22T22:33:34.699Z,6.05
2022-10-22T22:35:37.078Z,7.20
2022-10-22T22:37:38.691Z,6.25
2022-10-22T22:39:40.409Z,6.00
2022-10-22T22:41:43.545Z,5.15
2022-10-22T22:43:45.400Z,6.53
2022-10-22T22:45:47.211Z,5.07
2022-10-22T22:47:49.838Z,3.97
2022-10-22T22:49:51.412Z,3.20
2022-10-22T22:51:53.294Z,3.22
2022-10-22T22:53:57.703Z,3.08
2022-10-22T22:56:11.422Z,4.60
2022-10-22T22:58:15.977Z,4.22
2022-10-22T23:00:17.850Z,4.95
2022-10-22T23:02:26.896Z,3.63
2022-10-22T23:04:31.798Z,3.47
2022-10-22T23:06:37.306Z,3.78
2022-10-22T23:08:39.848Z,5.95
2022-10-22T23:10:41.561Z,5.55
2022-10-22T23:12:43.461Z,4.47
2022-10-22T23:14:45.587Z,4.22
2022-10-22T23:16:52.122Z,4.07
2022-10-22T23:18:55.137Z,4.28
2022-10-22T23:20:56.861Z,3.53
2022-10-22T23:23:01.611Z,3.60
2022-10-22T23:25:03.333Z,3.97
2022-10-22T23:27:05.204Z,3.45
2022-10-22T23:29:13.002Z,2.92
2022-10-22T23:31:17.027Z,2.83
2022-10-22T23:33:21.179Z,2.92
2022-10-22T23:35:22.866Z,1.80
2022-10-22T23:37:24.501Z,4.07
2022-10-22T23:39:29.338Z,3.50
2022-10-22T23:41:31.085Z,2.35
2022-10-22T23:43:38.689Z,2.50
2022-10-22T23:45:40.368Z,3.55
2022-10-22T23:47:42.459Z,5.03
2022-10-22T23:49:47.018Z,2.58
2022-10-22T23:51:48.878Z,5.00
2022-10-22T23:53:59.755Z,5.72
2022-10-22T23:56:11.080Z,2.05
2022-10-22T23:58:14.970Z,2.90
